首页
METAR-TAF:

METAR-TAF

机场 :

厄德尔, 土耳其

纬度: 39-58-36N, 经度: 43-52-36E, 海拔: 945米

当前天气观测

该预报发布于1小时和20分钟前的01:50 UTC
风速3节,风向南转南东,在东转东南南转西南之间变化
温度 17°C
湿度 39%
气压 1014 hPa
能见度10公里或以上
少量云层高于4000英尺
散云层高于10000英尺
多云层高于18000英尺

METAR: LTCT 010150Z 15003KT 120V210 9999 FEW040 SCT100 BKN180 17/03 Q1014

时间: 06:10 (03:10 UTC)

预报

该预报发布于56分钟前的02:14 UTC
预报有效从01日的 03点(UTC)到 01日的 12点(UTC)
风速2节,风向多变
能见度10公里或以上
少量云层高于4000英尺
散云层高于10000英尺
多云层高于18000英尺

TAF: LTCT 010214Z 0103/0112 VRB02KT 9999 FEW040 SCT100 BKN180

超过4000个机场的气象观测和天气预报(METAR&TAF报告)。

可查询的气象台以黄色和红色小点在地图上表示。

将鼠标移到小点上方,可查看气象台名称。

然后点击查看天气观测和预报。

如需切换地图:点击带黑十字的绿色按钮放大地图;点击带横线的绿色按钮缩小地图;或者点击绿色箭头查看邻近地区的地图。


METAR-TAF: